createdAt,value
2018-08-18T00:00:29.664Z,12.05
2018-08-18T00:01:29.620Z,12.05
2018-08-18T00:02:29.725Z,12.01
2018-08-18T00:03:29.631Z,12.03
2018-08-18T00:04:29.639Z,11.99
2018-08-18T00:05:29.806Z,12.04
2018-08-18T00:06:29.576Z,12.02
2018-08-18T00:07:29.724Z,12.02
2018-08-18T00:08:29.613Z,12.01
2018-08-18T00:09:29.784Z,11.99
2018-08-18T00:10:29.884Z,12
2018-08-18T00:11:29.655Z,11.97
2018-08-18T00:12:29.625Z,11.98
2018-08-18T00:13:29.768Z,11.97
2018-08-18T00:14:29.873Z,11.98
2018-08-18T00:15:29.596Z,11.97
2018-08-18T00:16:30.492Z,11.96
2018-08-18T00:17:29.697Z,11.95
2018-08-18T00:18:29.590Z,11.93
2018-08-18T00:19:29.690Z,11.92
2018-08-18T00:20:29.667Z,11.93
2018-08-18T00:21:29.740Z,11.94
2018-08-18T00:22:29.754Z,11.93
2018-08-18T00:23:29.660Z,11.92
2018-08-18T00:24:29.646Z,11.9
2018-08-18T00:25:29.614Z,11.93
2018-08-18T00:26:29.640Z,11.88
2018-08-18T00:27:29.610Z,11.85
2018-08-18T00:28:29.687Z,11.89
2018-08-18T00:29:29.627Z,11.81
2018-08-18T00:30:29.643Z,11.85
2018-08-18T00:31:29.749Z,11.88
2018-08-18T00:32:29.668Z,11.81
2018-08-18T00:33:29.648Z,11.87
2018-08-18T00:34:29.696Z,11.85
2018-08-18T00:35:29.645Z,11.84
2018-08-18T00:36:29.668Z,11.8
2018-08-18T00:37:29.690Z,11.85
2018-08-18T00:38:29.628Z,11.78
2018-08-18T00:39:29.649Z,11.78
2018-08-18T00:40:29.611Z,11.78
2018-08-18T00:41:29.820Z,11.77
2018-08-18T00:42:29.770Z,11.81
2018-08-18T00:43:29.714Z,11.84
2018-08-18T00:44:29.625Z,11.78
2018-08-18T00:45:29.687Z,11.77
2018-08-18T00:46:29.655Z,11.78
2018-08-18T00:47:29.660Z,11.71
2018-08-18T00:48:29.650Z,11.75
2018-08-18T00:49:29.731Z,11.79
2018-08-18T00:50:29.997Z,11.78
2018-08-18T00:51:29.821Z,11.75
2018-08-18T00:52:29.629Z,11.8
2018-08-18T00:53:29.842Z,11.78
2018-08-18T00:54:29.687Z,11.73
2018-08-18T00:55:29.699Z,11.76
2018-08-18T00:56:29.860Z,11.75
2018-08-18T00:57:29.855Z,11.73
2018-08-18T00:58:29.707Z,11.75
2018-08-18T00:59:29.722Z,11.75
2018-08-18T01:00:29.679Z,11.75
2018-08-18T01:01:29.621Z,11.77
2018-08-18T01:02:29.704Z,11.76
2018-08-18T01:03:29.705Z,11.74
2018-08-18T01:04:30.525Z,11.75
2018-08-18T01:05:29.805Z,11.74
2018-08-18T01:06:29.726Z,11.75
2018-08-18T01:07:29.810Z,11.71
2018-08-18T01:08:29.680Z,11.72
2018-08-18T01:09:30.382Z,11.75
2018-08-18T01:10:29.764Z,11.71
2018-08-18T01:11:31.142Z,11.66
2018-08-18T01:12:31.566Z,11.78
2018-08-18T01:13:29.784Z,11.75
2018-08-18T01:14:30.783Z,11.76
2018-08-18T01:15:30.135Z,11.78
2018-08-18T01:16:29.714Z,11.77
2018-08-18T01:17:29.836Z,11.73
2018-08-18T01:18:29.907Z,11.73
2018-08-18T01:19:29.833Z,11.71
2018-08-18T01:20:29.796Z,11.73
2018-08-18T01:21:30.689Z,11.68
2018-08-18T01:22:30.046Z,11.74
2018-08-18T01:23:29.914Z,11.72
2018-08-18T01:24:29.787Z,11.7
2018-08-18T01:25:30.060Z,11.72
2018-08-18T01:26:29.717Z,11.65
2018-08-18T01:27:29.738Z,11.72
2018-08-18T01:28:29.750Z,11.71
2018-08-18T01:29:29.764Z,11.64
2018-08-18T01:30:29.727Z,11.72
2018-08-18T01:31:29.700Z,11.65
2018-08-18T01:32:29.738Z,11.67
2018-08-18T01:33:29.675Z,11.63
2018-08-18T01:34:29.938Z,11.67
2018-08-18T01:35:29.869Z,11.69
2018-08-18T01:36:29.712Z,11.67
2018-08-18T01:37:29.762Z,11.7
2018-08-18T01:38:29.723Z,11.6
2018-08-18T01:39:29.942Z,11.64
2018-08-18T01:40:29.816Z,11.63
2018-08-18T01:41:30.510Z,11.62
2018-08-18T01:42:29.863Z,11.63
2018-08-18T01:43:29.821Z,11.66
2018-08-18T01:44:29.713Z,11.6
2018-08-18T01:45:29.726Z,11.68
2018-08-18T01:46:29.763Z,11.68
2018-08-18T01:47:29.743Z,11.76
2018-08-18T01:48:29.767Z,11.73
2018-08-18T01:49:29.767Z,11.74
2018-08-18T01:50:29.689Z,11.72
2018-08-18T01:51:29.726Z,11.69
2018-08-18T01:52:29.755Z,11.65
2018-08-18T01:53:29.712Z,11.68
2018-08-18T01:54:29.831Z,11.67
2018-08-18T01:55:29.708Z,11.68
2018-08-18T01:56:29.752Z,11.62
2018-08-18T01:57:29.731Z,11.63
2018-08-18T01:58:29.695Z,11.68
2018-08-18T01:59:29.722Z,11.67
2018-08-18T02:00:29.737Z,11.64
2018-08-18T02:01:29.779Z,11.68
2018-08-18T02:02:29.772Z,11.69
2018-08-18T02:03:29.722Z,11.69
2018-08-18T02:04:29.737Z,11.75
2018-08-18T02:05:29.724Z,11.71
2018-08-18T02:06:29.718Z,11.71
2018-08-18T02:07:29.729Z,11.69
2018-08-18T02:08:29.811Z,11.74
2018-08-18T02:09:29.762Z,11.66
2018-08-18T02:10:29.713Z,11.73
2018-08-18T02:11:29.727Z,11.74
2018-08-18T02:12:29.806Z,11.73
2018-08-18T02:13:29.742Z,11.74
2018-08-18T02:14:29.806Z,11.71
2018-08-18T02:15:29.826Z,11.74
2018-08-18T02:16:29.958Z,11.71
2018-08-18T02:17:29.904Z,11.64
2018-08-18T02:18:30.242Z,11.68
2018-08-18T02:19:29.751Z,11.58
2018-08-18T02:20:29.752Z,11.72
2018-08-18T02:21:29.862Z,11.67
2018-08-18T02:22:29.820Z,11.65
2018-08-18T02:23:29.809Z,11.75
2018-08-18T02:24:29.740Z,11.65
2018-08-18T02:25:29.776Z,11.66
2018-08-18T02:26:29.825Z,11.73
2018-08-18T02:27:29.793Z,11.69
2018-08-18T02:28:31.596Z,11.71
2018-08-18T02:29:30.022Z,11.75
2018-08-18T02:30:29.853Z,11.74
2018-08-18T02:31:29.762Z,11.7
2018-08-18T02:32:29.804Z,11.63
2018-08-18T02:33:29.842Z,11.67
2018-08-18T02:34:29.882Z,11.72
2018-08-18T02:35:29.809Z,11.66
2018-08-18T02:36:29.795Z,11.58
2018-08-18T02:37:29.830Z,11.67
2018-08-18T02:38:29.784Z,11.7
2018-08-18T02:39:29.773Z,11.72
2018-08-18T02:40:30.059Z,11.67
2018-08-18T02:41:29.786Z,11.7
2018-08-18T02:42:29.798Z,11.75
2018-08-18T02:43:29.993Z,11.72
2018-08-18T02:44:30.002Z,11.74
2018-08-18T02:45:31.051Z,11.74
2018-08-18T02:46:29.854Z,11.72
2018-08-18T02:47:29.919Z,11.74
2018-08-18T02:48:29.837Z,11.7
2018-08-18T02:49:29.840Z,11.72
2018-08-18T02:50:29.992Z,11.66
2018-08-18T02:51:29.853Z,11.66
2018-08-18T02:52:29.794Z,11.65
2018-08-18T02:53:29.877Z,11.63
2018-08-18T02:54:29.866Z,11.61
2018-08-18T02:55:30.814Z,11.63
2018-08-18T02:56:29.989Z,11.61
2018-08-18T02:57:29.847Z,11.62
2018-08-18T02:58:29.802Z,11.65
2018-08-18T02:59:29.808Z,11.58
2018-08-18T03:00:30.510Z,11.62
2018-08-18T03:01:29.803Z,11.64
2018-08-18T03:02:30.155Z,11.64
2018-08-18T03:03:29.784Z,11.65
2018-08-18T03:04:29.816Z,11.57
2018-08-18T03:05:29.930Z,11.67
2018-08-18T03:06:29.805Z,11.66
2018-08-18T03:07:29.862Z,11.6
2018-08-18T03:08:29.852Z,11.65
2018-08-18T03:09:30.925Z,11.63
2018-08-18T03:10:29.893Z,11.66
2018-08-18T03:11:29.879Z,11.64
2018-08-18T03:12:29.833Z,11.6
2018-08-18T03:13:30.545Z,11.63
2018-08-18T03:14:29.859Z,11.63
2018-08-18T03:15:29.843Z,11.62
2018-08-18T03:16:29.791Z,11.61
2018-08-18T03:17:29.840Z,11.6
2018-08-18T03:18:29.846Z,11.61
2018-08-18T03:19:29.816Z,11.65
2018-08-18T03:20:29.813Z,11.65
2018-08-18T03:21:29.821Z,11.64
2018-08-18T03:22:29.818Z,11.6
2018-08-18T03:23:29.802Z,11.65
2018-08-18T03:24:29.805Z,11.66
2018-08-18T03:25:29.831Z,11.62
2018-08-18T03:26:29.946Z,11.55
2018-08-18T03:27:30.103Z,11.56
2018-08-18T03:28:29.948Z,11.65
2018-08-18T03:29:29.846Z,11.62
2018-08-18T03:30:30.148Z,11.6
2018-08-18T03:31:29.859Z,11.56
2018-08-18T03:32:29.859Z,11.67
2018-08-18T03:33:29.839Z,11.65
2018-08-18T03:34:29.971Z,11.64
2018-08-18T03:35:29.939Z,11.66
2018-08-18T03:36:29.935Z,11.56
2018-08-18T03:37:29.849Z,11.62
2018-08-18T03:38:30.207Z,11.67
2018-08-18T03:39:29.932Z,11.63
2018-08-18T03:40:30.047Z,11.54
2018-08-18T03:41:30.088Z,11.65
2018-08-18T03:42:30.416Z,11.54
2018-08-18T03:43:30.054Z,11.5
2018-08-18T03:44:29.912Z,11.59
2018-08-18T03:45:29.831Z,11.55
2018-08-18T03:46:30.023Z,11.59
2018-08-18T03:47:30.520Z,11.53
2018-08-18T03:48:29.903Z,11.7
2018-08-18T03:49:29.864Z,11.68
2018-08-18T03:50:29.855Z,11.62
2018-08-18T03:51:29.828Z,11.51
2018-08-18T03:52:30.466Z,11.53
2018-08-18T03:53:29.966Z,11.54
2018-08-18T03:54:29.941Z,11.59
2018-08-18T03:55:30.072Z,11.51
2018-08-18T03:56:30.075Z,11.56
2018-08-18T03:57:29.986Z,11.56
2018-08-18T03:58:29.889Z,11.52
2018-08-18T03:59:30.537Z,11.53
2018-08-18T04:00:29.890Z,11.52
2018-08-18T04:01:30.160Z,11.54
2018-08-18T04:02:30.296Z,11.45
2018-08-18T04:03:29.883Z,11.58
2018-08-18T04:04:29.930Z,11.54
2018-08-18T04:05:30.348Z,11.55
2018-08-18T04:06:29.933Z,11.56
2018-08-18T04:07:29.939Z,11.48
2018-08-18T04:08:30.063Z,11.65
2018-08-18T04:09:29.882Z,11.62
2018-08-18T04:10:29.971Z,11.64
2018-08-18T04:11:29.926Z,11.66
2018-08-18T04:12:29.872Z,11.6
2018-08-18T04:13:29.881Z,11.61
2018-08-18T04:14:30.070Z,11.6
2018-08-18T04:15:29.954Z,11.59
2018-08-18T04:16:30.208Z,11.61
2018-08-18T04:17:30.292Z,11.57
2018-08-18T04:18:30.213Z,11.59
2018-08-18T04:19:30.037Z,11.55
2018-08-18T04:20:30.047Z,11.55
2018-08-18T04:21:30.039Z,11.49
2018-08-18T04:22:29.891Z,11.58
2018-08-18T04:23:30.403Z,11.64
2018-08-18T04:24:29.922Z,11.59
2018-08-18T04:25:30.219Z,11.57
2018-08-18T04:26:30.338Z,11.53
2018-08-18T04:27:29.930Z,11.56
2018-08-18T04:28:29.923Z,11.49
2018-08-18T04:29:29.879Z,11.49
2018-08-18T04:30:29.861Z,11.44
2018-08-18T04:31:30.066Z,11.51
2018-08-18T04:32:29.947Z,11.44
2018-08-18T04:33:29.954Z,11.45
2018-08-18T04:34:30.041Z,11.43
2018-08-18T04:35:30.371Z,11.49
2018-08-18T04:36:29.965Z,11.48
2018-08-18T04:37:30.039Z,11.46
2018-08-18T04:38:29.989Z,11.49
2018-08-18T04:39:29.997Z,11.57
2018-08-18T04:40:29.941Z,11.48
2018-08-18T04:41:30.094Z,11.46
2018-08-18T04:42:29.942Z,11.48
2018-08-18T04:43:29.926Z,11.43
2018-08-18T04:44:29.968Z,11.52
2018-08-18T04:45:29.985Z,11.53
2018-08-18T04:46:29.986Z,11.46
2018-08-18T04:47:30.018Z,11.49
2018-08-18T04:48:30.086Z,11.56
2018-08-18T04:49:30.029Z,11.57
2018-08-18T04:50:30.960Z,11.55
2018-08-18T04:51:30.029Z,11.49
2018-08-18T04:52:30.397Z,11.53
2018-08-18T04:53:29.908Z,11.57
2018-08-18T04:54:30.226Z,11.57
2018-08-18T04:55:30.106Z,11.46
2018-08-18T04:56:30.187Z,11.45
2018-08-18T04:57:30.092Z,11.52
2018-08-18T04:58:29.927Z,11.47
2018-08-18T04:59:31.091Z,11.54
2018-08-18T05:00:29.956Z,11.54
2018-08-18T05:01:29.903Z,11.48
2018-08-18T05:02:30.076Z,11.48
2018-08-18T05:03:30.987Z,11.51
2018-08-18T05:04:29.957Z,11.51
2018-08-18T05:05:29.956Z,11.52
2018-08-18T05:06:29.991Z,11.56
2018-08-18T05:07:37.117Z,11.55
2018-08-18T05:08:30.757Z,11.59
2018-08-18T05:09:30.266Z,11.6
2018-08-18T05:10:30.077Z,11.59
2018-08-18T05:11:30.173Z,11.53
2018-08-18T05:12:30.072Z,11.58
2018-08-18T05:13:30.089Z,11.57
2018-08-18T05:14:30.199Z,11.63
2018-08-18T05:15:30.062Z,11.66
2018-08-18T05:16:29.983Z,11.64
2018-08-18T05:17:30.221Z,11.64
2018-08-18T05:18:30.061Z,11.68
2018-08-18T05:19:29.955Z,11.69
2018-08-18T05:20:30.172Z,11.7
2018-08-18T05:21:29.954Z,11.66
2018-08-18T05:22:30.087Z,11.62
2018-08-18T05:23:30.828Z,11.64
2018-08-18T05:24:30.147Z,11.68
2018-08-18T05:25:30.006Z,11.64
2018-08-18T05:26:30.060Z,11.68
2018-08-18T05:27:29.992Z,11.67
2018-08-18T05:28:30.127Z,11.72
2018-08-18T05:29:30.012Z,11.64
2018-08-18T05:30:30.106Z,11.7
2018-08-18T05:31:30.159Z,11.69
2018-08-18T05:32:30.021Z,11.7
2018-08-18T05:33:30.146Z,11.63
2018-08-18T05:34:30.012Z,11.67
2018-08-18T05:35:30.112Z,11.68
2018-08-18T05:36:30.678Z,11.62
2018-08-18T05:37:30.169Z,11.7
2018-08-18T05:38:30.118Z,11.67
2018-08-18T05:39:30.068Z,11.69
2018-08-18T05:40:29.997Z,11.67
2018-08-18T05:41:30.091Z,11.71
2018-08-18T05:42:30.147Z,11.72
2018-08-18T05:43:30.256Z,11.67
2018-08-18T05:44:30.069Z,11.72
2018-08-18T05:45:29.981Z,11.72
2018-08-18T05:46:30.012Z,11.76
2018-08-18T05:47:30.261Z,11.77
2018-08-18T05:48:30.009Z,11.75
2018-08-18T05:49:29.979Z,11.81
2018-08-18T05:50:30.041Z,11.7
2018-08-18T05:51:30.072Z,11.79
2018-08-18T05:52:30.008Z,11.78
2018-08-18T05:53:29.968Z,11.83
2018-08-18T05:54:30.026Z,11.84
2018-08-18T05:55:30.034Z,11.83
2018-08-18T05:56:29.988Z,11.79
2018-08-18T05:57:30.075Z,11.84
2018-08-18T05:58:30.034Z,11.81
2018-08-18T05:59:30.001Z,11.82
2018-08-18T06:00:29.993Z,11.87
2018-08-18T06:01:30.020Z,11.8
2018-08-18T06:02:29.999Z,11.86
2018-08-18T06:03:30.068Z,11.77
2018-08-18T06:04:30.019Z,11.78
2018-08-18T06:05:30.044Z,11.86
2018-08-18T06:06:30.038Z,11.83
2018-08-18T06:07:30.035Z,11.87
2018-08-18T06:08:30.096Z,11.84
2018-08-18T06:09:30.078Z,11.85
2018-08-18T06:10:30.007Z,11.87
2018-08-18T06:11:30.035Z,11.87
2018-08-18T06:12:30.032Z,11.9
2018-08-18T06:13:30.131Z,11.95
2018-08-18T06:14:30.079Z,11.95
2018-08-18T06:15:30.043Z,11.93
2018-08-18T06:16:30.032Z,12.13
2018-08-18T06:17:30.249Z,12.05
2018-08-18T06:18:30.106Z,11.95
2018-08-18T06:19:30.156Z,12.06
2018-08-18T06:20:30.164Z,11.97
2018-08-18T06:21:30.040Z,11.93
2018-08-18T06:22:30.030Z,11.89
2018-08-18T06:23:30.023Z,11.98
2018-08-18T06:24:30.017Z,11.94
2018-08-18T06:25:30.054Z,11.93
2018-08-18T06:26:30.077Z,11.92
2018-08-18T06:27:30.110Z,12.03
2018-08-18T06:28:30.075Z,12.07
2018-08-18T06:29:30.057Z,12.05
2018-08-18T06:30:30.048Z,12.03
2018-08-18T06:31:29.995Z,11.99
2018-08-18T06:32:30.161Z,12
2018-08-18T06:33:30.264Z,11.97
2018-08-18T06:34:30.415Z,11.99
2018-08-18T06:35:30.061Z,12.01
2018-08-18T06:36:30.077Z,12.01
2018-08-18T06:37:30.094Z,12.03
2018-08-18T06:38:30.070Z,12.11
2018-08-18T06:39:30.201Z,12.07
2018-08-18T06:40:30.073Z,12.12
2018-08-18T06:41:30.607Z,12.12
2018-08-18T06:42:30.078Z,12.13
2018-08-18T06:43:30.269Z,12.1
2018-08-18T06:44:30.065Z,12.1
2018-08-18T06:45:30.126Z,12.05
2018-08-18T06:46:30.110Z,12.06
2018-08-18T06:47:30.219Z,12.09
2018-08-18T06:48:30.129Z,12.04
2018-08-18T06:49:30.195Z,12.03
2018-08-18T06:50:30.111Z,12.06
2018-08-18T06:51:30.155Z,12.02
2018-08-18T06:52:30.294Z,12.01
2018-08-18T06:53:30.060Z,11.98
2018-08-18T06:54:31.251Z,12.02
2018-08-18T06:55:30.158Z,12.07
2018-08-18T06:56:30.085Z,12.1
2018-08-18T06:57:30.226Z,12.13
2018-08-18T06:58:30.107Z,12
2018-08-18T06:59:30.264Z,12.07
2018-08-18T07:00:30.128Z,12.05
2018-08-18T07:01:30.064Z,12
2018-08-18T07:02:30.097Z,12.09
2018-08-18T07:03:30.080Z,12.04
2018-08-18T07:04:30.149Z,12.06
2018-08-18T07:05:30.107Z,11.98
2018-08-18T07:06:30.114Z,11.98
2018-08-18T07:07:30.074Z,11.99
2018-08-18T07:08:31.061Z,12.05
2018-08-18T07:09:30.098Z,12
2018-08-18T07:10:30.086Z,11.91
2018-08-18T07:11:30.179Z,11.91
2018-08-18T07:12:30.067Z,11.93
2018-08-18T07:13:30.118Z,11.9
2018-08-18T07:14:30.126Z,11.93
2018-08-18T07:15:30.093Z,11.94
2018-08-18T07:16:30.077Z,11.9
2018-08-18T07:17:30.136Z,11.9
2018-08-18T07:18:30.171Z,11.94
2018-08-18T07:19:30.866Z,11.97
2018-08-18T07:20:30.075Z,11.98
2018-08-18T07:21:30.102Z,12.01
2018-08-18T07:22:30.106Z,11.97
2018-08-18T07:23:30.104Z,11.99
2018-08-18T07:24:30.109Z,11.97
2018-08-18T07:25:30.151Z,11.98
2018-08-18T07:26:30.124Z,11.84
2018-08-18T07:27:30.140Z,12
2018-08-18T07:28:30.637Z,11.96
2018-08-18T07:29:30.281Z,11.96
2018-08-18T07:30:30.142Z,11.92
2018-08-18T07:31:30.127Z,11.83
2018-08-18T07:32:30.138Z,11.83
2018-08-18T07:33:30.162Z,11.83
2018-08-18T07:34:30.114Z,11.75
2018-08-18T07:35:30.243Z,11.84
2018-08-18T07:36:30.140Z,11.82
2018-08-18T07:37:30.783Z,11.78
2018-08-18T07:38:30.123Z,11.8
2018-08-18T07:39:30.153Z,11.81
2018-08-18T07:40:30.099Z,11.8
2018-08-18T07:41:30.509Z,11.69
2018-08-18T07:42:30.148Z,11.7
2018-08-18T07:43:30.180Z,11.73
2018-08-18T07:44:30.115Z,11.74
2018-08-18T07:45:30.114Z,11.76
2018-08-18T07:46:30.669Z,11.73
2018-08-18T07:47:30.180Z,11.75
2018-08-18T07:48:30.188Z,11.78
2018-08-18T07:49:30.157Z,11.76
2018-08-18T07:50:30.344Z,11.69
2018-08-18T07:51:30.155Z,11.76
2018-08-18T07:52:30.152Z,11.8
2018-08-18T07:53:30.969Z,11.71
2018-08-18T07:54:30.156Z,11.82
2018-08-18T07:55:30.169Z,11.79
2018-08-18T07:56:30.169Z,11.79
2018-08-18T07:57:30.196Z,11.85
2018-08-18T07:58:30.249Z,11.81
2018-08-18T07:59:30.170Z,11.77
2018-08-18T08:00:30.185Z,11.71
2018-08-18T08:01:30.387Z,11.79
2018-08-18T08:02:30.184Z,11.73
2018-08-18T08:03:30.246Z,11.71
2018-08-18T08:04:30.179Z,11.77
2018-08-18T08:05:30.522Z,11.81
2018-08-18T08:06:30.199Z,11.77
2018-08-18T08:07:30.312Z,11.84
2018-08-18T08:08:30.433Z,11.78
2018-08-18T08:09:30.138Z,11.82
2018-08-18T08:10:30.175Z,11.75
2018-08-18T08:11:30.146Z,11.81
2018-08-18T08:12:30.988Z,11.77
2018-08-18T08:13:30.164Z,11.71
2018-08-18T08:14:30.262Z,11.75
2018-08-18T08:15:30.178Z,11.8
2018-08-18T08:16:30.194Z,11.73
2018-08-18T08:17:30.198Z,11.8
2018-08-18T08:18:30.229Z,11.81
2018-08-18T08:19:30.198Z,11.88
2018-08-18T08:20:30.242Z,11.8
2018-08-18T08:21:30.174Z,11.78
2018-08-18T08:22:30.231Z,11.88
2018-08-18T08:23:30.313Z,11.96
2018-08-18T08:24:30.255Z,11.89
2018-08-18T08:25:30.177Z,11.97
2018-08-18T08:26:30.262Z,11.84
2018-08-18T08:27:30.191Z,11.85
2018-08-18T08:28:30.257Z,11.9
2018-08-18T08:29:30.459Z,11.82
2018-08-18T08:30:30.170Z,11.91
2018-08-18T08:31:30.225Z,11.85
2018-08-18T08:32:30.159Z,11.88
2018-08-18T08:33:30.174Z,11.84
2018-08-18T08:34:30.172Z,11.73
2018-08-18T08:35:30.429Z,11.72
2018-08-18T08:36:30.196Z,11.8
2018-08-18T08:37:30.173Z,11.91
2018-08-18T08:38:30.223Z,11.78
2018-08-18T08:39:30.198Z,11.79
2018-08-18T08:40:30.251Z,11.88
2018-08-18T08:41:30.194Z,11.79
2018-08-18T08:42:30.197Z,11.84
2018-08-18T08:43:30.248Z,11.79
2018-08-18T08:44:30.507Z,11.84
2018-08-18T08:45:30.182Z,11.76
2018-08-18T08:46:30.184Z,11.81
2018-08-18T08:47:30.217Z,11.77
2018-08-18T08:48:30.331Z,11.84
2018-08-18T08:49:30.221Z,11.7
2018-08-18T08:50:30.305Z,11.72
2018-08-18T08:51:30.322Z,11.79
2018-08-18T08:52:30.210Z,11.76
2018-08-18T08:53:30.219Z,11.81
2018-08-18T08:54:30.265Z,11.76
2018-08-18T08:55:30.234Z,11.81
2018-08-18T08:56:30.271Z,11.75
2018-08-18T08:57:30.206Z,11.78
2018-08-18T08:58:30.289Z,11.8
2018-08-18T08:59:30.310Z,11.84
2018-08-18T09:00:30.225Z,11.78
2018-08-18T09:01:30.186Z,11.81
2018-08-18T09:02:30.204Z,11.82
2018-08-18T09:03:30.203Z,11.8
2018-08-18T09:04:30.349Z,11.72
2018-08-18T09:05:30.204Z,11.82
2018-08-18T09:06:30.221Z,11.75
2018-08-18T09:07:30.357Z,11.78
2018-08-18T09:08:30.219Z,11.71
2018-08-18T09:09:30.271Z,11.72
2018-08-18T09:10:30.283Z,11.85
2018-08-18T09:11:30.240Z,11.78
2018-08-18T09:12:30.222Z,11.79
2018-08-18T09:13:30.288Z,11.77
2018-08-18T09:14:30.289Z,11.9
2018-08-18T09:15:30.495Z,11.85
2018-08-18T09:16:30.379Z,11.81
2018-08-18T09:17:30.303Z,11.82
2018-08-18T09:18:30.198Z,11.8
2018-08-18T09:19:30.293Z,11.87
2018-08-18T09:20:30.921Z,11.85
2018-08-18T09:21:30.533Z,11.79
2018-08-18T09:22:30.272Z,11.83
2018-08-18T09:23:30.362Z,11.83
2018-08-18T09:24:30.348Z,11.8
2018-08-18T09:25:30.537Z,11.69
2018-08-18T09:26:31.088Z,11.76
2018-08-18T09:27:30.416Z,11.85
2018-08-18T09:28:30.269Z,11.8
2018-08-18T09:29:30.275Z,11.7
2018-08-18T09:30:30.453Z,11.68
2018-08-18T09:31:30.372Z,11.8
2018-08-18T09:32:30.320Z,11.79
2018-08-18T09:33:30.295Z,11.86
2018-08-18T09:34:30.581Z,11.75
2018-08-18T09:35:30.447Z,11.8
2018-08-18T09:36:30.313Z,11.79
2018-08-18T09:37:30.295Z,11.84
2018-08-18T09:38:30.315Z,11.75
2018-08-18T09:39:30.329Z,11.8
2018-08-18T09:40:30.369Z,11.91
2018-08-18T09:41:30.367Z,11.88
2018-08-18T09:42:30.346Z,11.77
2018-08-18T09:43:30.328Z,11.75
2018-08-18T09:44:30.364Z,11.81
2018-08-18T09:45:31.749Z,11.77
2018-08-18T09:46:38.677Z,11.84
2018-08-18T09:47:31.136Z,11.84
2018-08-18T09:48:30.317Z,11.82
2018-08-18T09:49:30.494Z,11.87
2018-08-18T09:50:30.292Z,11.86
2018-08-18T09:51:30.312Z,11.88
2018-08-18T09:52:30.318Z,11.88
2018-08-18T09:53:30.486Z,11.81
2018-08-18T09:54:30.296Z,11.83
2018-08-18T09:55:30.298Z,11.83
2018-08-18T09:56:30.311Z,11.82
2018-08-18T09:57:30.325Z,11.81
2018-08-18T09:58:30.368Z,11.79
2018-08-18T09:59:30.572Z,11.83
2018-08-18T10:00:30.367Z,11.79
2018-08-18T10:01:30.310Z,11.79
2018-08-18T10:02:30.696Z,11.81
2018-08-18T10:03:30.302Z,11.79
2018-08-18T10:04:30.380Z,11.87
2018-08-18T10:05:30.399Z,11.91
2018-08-18T10:06:30.811Z,11.85
2018-08-18T10:07:30.357Z,11.95
2018-08-18T10:08:30.301Z,11.95
2018-08-18T10:09:30.599Z,11.95
2018-08-18T10:10:30.292Z,11.87
2018-08-18T10:11:30.347Z,12.03
2018-08-18T10:12:30.310Z,11.88
2018-08-18T10:13:30.285Z,11.93
2018-08-18T10:14:30.466Z,11.94
2018-08-18T10:15:30.350Z,11.89
2018-08-18T10:16:30.357Z,11.96
2018-08-18T10:17:30.440Z,11.81
2018-08-18T10:18:30.341Z,11.93
2018-08-18T10:19:30.599Z,11.89
2018-08-18T10:20:31.240Z,11.99
2018-08-18T10:21:31.479Z,11.98
2018-08-18T10:22:30.464Z,11.93
2018-08-18T10:23:30.331Z,11.93
2018-08-18T10:24:31.718Z,11.86
2018-08-18T10:25:32.261Z,11.93
2018-08-18T10:26:30.364Z,11.89
2018-08-18T10:27:30.359Z,11.92
2018-08-18T10:28:30.426Z,11.75
2018-08-18T10:29:30.490Z,11.77
2018-08-18T10:30:30.409Z,11.9
2018-08-18T10:31:30.614Z,11.85
2018-08-18T10:32:30.521Z,11.99
2018-08-18T10:33:30.401Z,11.91
2018-08-18T10:34:30.512Z,11.87
2018-08-18T10:35:30.388Z,11.93
2018-08-18T10:36:30.582Z,11.89
2018-08-18T10:37:30.468Z,11.81
2018-08-18T10:38:30.365Z,11.79
2018-08-18T10:39:30.590Z,11.85
2018-08-18T10:40:30.478Z,11.81
2018-08-18T10:41:30.509Z,11.88
2018-08-18T10:42:30.565Z,11.99
2018-08-18T10:43:30.372Z,11.97
2018-08-18T10:44:30.588Z,11.96
2018-08-18T10:45:30.422Z,11.89
2018-08-18T10:46:30.456Z,11.92
2018-08-18T10:47:30.692Z,11.83
2018-08-18T10:48:30.472Z,12.03
2018-08-18T10:49:30.458Z,11.97
2018-08-18T10:50:30.472Z,11.84
2018-08-18T10:51:30.884Z,11.82
2018-08-18T10:52:30.391Z,11.81
2018-08-18T10:53:30.514Z,11.85
2018-08-18T10:54:30.501Z,11.92
2018-08-18T10:55:30.518Z,11.87
2018-08-18T10:56:30.427Z,11.85
2018-08-18T10:57:30.626Z,11.84
2018-08-18T10:58:30.768Z,11.92
2018-08-18T10:59:30.545Z,11.75
2018-08-18T11:00:30.550Z,11.9
2018-08-18T11:01:30.548Z,11.94
2018-08-18T11:02:31.157Z,11.81
2018-08-18T11:03:30.460Z,11.82
2018-08-18T11:04:34.061Z,11.86
2018-08-18T11:05:30.390Z,11.76
2018-08-18T11:06:30.653Z,11.9
2018-08-18T11:07:30.498Z,11.96
2018-08-18T11:08:30.702Z,12
2018-08-18T11:09:30.465Z,11.82
2018-08-18T11:10:30.526Z,11.82
2018-08-18T11:11:30.641Z,11.77
2018-08-18T11:12:30.398Z,11.8
2018-08-18T11:13:30.537Z,11.83
2018-08-18T11:14:30.558Z,11.84
2018-08-18T11:15:30.552Z,11.79
2018-08-18T11:16:30.568Z,11.71
2018-08-18T11:17:30.464Z,11.81
2018-08-18T11:18:32.751Z,11.84
2018-08-18T11:19:30.376Z,11.94
2018-08-18T11:20:30.634Z,11.8
2018-08-18T11:21:30.581Z,11.78
2018-08-18T11:22:30.545Z,11.86
2018-08-18T11:23:30.609Z,11.73
2018-08-18T11:24:30.607Z,11.76
2018-08-18T11:25:30.450Z,11.94
2018-08-18T11:26:30.505Z,11.84
2018-08-18T11:27:30.621Z,11.77
2018-08-18T11:28:31.496Z,11.79
2018-08-18T11:29:30.417Z,11.79
2018-08-18T11:30:31.280Z,11.74
2018-08-18T11:31:30.552Z,11.85
2018-08-18T11:32:30.489Z,11.79
2018-08-18T11:33:34.180Z,11.77
2018-08-18T11:34:30.454Z,11.76
2018-08-18T11:35:31.719Z,11.75
2018-08-18T11:36:30.404Z,11.85
2018-08-18T11:37:30.713Z,11.77
2018-08-18T11:38:30.606Z,11.78
2018-08-18T11:39:30.432Z,11.88
2018-08-18T11:40:30.518Z,11.91
2018-08-18T11:41:30.920Z,11.88
2018-08-18T11:42:30.496Z,11.82
2018-08-18T11:43:30.427Z,11.78
2018-08-18T11:44:30.530Z,11.77
2018-08-18T11:45:30.448Z,11.82
2018-08-18T11:46:30.426Z,11.79
2018-08-18T11:47:30.811Z,11.82
2018-08-18T11:48:30.497Z,11.89
2018-08-18T11:49:30.437Z,11.82
2018-08-18T11:50:30.701Z,11.8
2018-08-18T11:51:30.460Z,11.64
2018-08-18T11:52:30.608Z,11.75
2018-08-18T11:53:30.623Z,11.77
2018-08-18T11:54:30.437Z,11.74
2018-08-18T11:55:30.592Z,11.77
2018-08-18T11:56:30.729Z,11.81
2018-08-18T11:57:30.446Z,11.85
2018-08-18T11:58:30.582Z,11.84
2018-08-18T11:59:31.424Z,11.88
2018-08-18T12:00:30.522Z,11.84
2018-08-18T12:01:30.437Z,11.85
2018-08-18T12:02:30.479Z,11.81
2018-08-18T12:03:30.498Z,11.82
2018-08-18T12:04:30.458Z,11.83
2018-08-18T12:05:30.687Z,11.78
2018-08-18T12:06:30.711Z,11.77
2018-08-18T12:07:30.582Z,11.68
2018-08-18T12:08:31.582Z,11.74
2018-08-18T12:09:30.466Z,11.71
2018-08-18T12:10:31.128Z,11.76
2018-08-18T12:11:30.487Z,11.77
2018-08-18T12:12:30.456Z,11.76
2018-08-18T12:13:30.556Z,11.82
2018-08-18T12:14:30.551Z,11.56
2018-08-18T12:15:30.772Z,11.7
2018-08-18T12:16:30.470Z,11.7
2018-08-18T12:17:30.585Z,11.72
2018-08-18T12:18:30.580Z,11.75
2018-08-18T12:19:30.578Z,11.78
2018-08-18T12:20:31.503Z,11.71
2018-08-18T12:21:30.480Z,11.67
2018-08-18T12:22:30.788Z,11.49
2018-08-18T12:23:30.817Z,11.78
2018-08-18T12:24:30.545Z,11.73
2018-08-18T12:25:30.581Z,11.63
2018-08-18T12:26:30.677Z,11.66
2018-08-18T12:27:30.675Z,11.66
2018-08-18T12:28:31.146Z,11.75
2018-08-18T12:29:31.470Z,11.85
2018-08-18T12:30:30.760Z,11.75
2018-08-18T12:31:30.575Z,11.73
2018-08-18T12:32:32.716Z,11.62
2018-08-18T12:33:30.568Z,11.55
2018-08-18T12:34:30.849Z,11.58
2018-08-18T12:35:30.592Z,11.63
2018-08-18T12:36:31.359Z,11.59
2018-08-18T12:37:32.406Z,11.54
2018-08-18T12:38:30.524Z,11.62
2018-08-18T12:39:30.498Z,11.68
2018-08-18T12:40:30.640Z,11.57
2018-08-18T12:41:30.827Z,11.53
2018-08-18T12:42:30.653Z,11.61
2018-08-18T12:43:31.090Z,11.56
2018-08-18T12:44:30.574Z,11.53
2018-08-18T12:45:30.591Z,11.53
2018-08-18T12:46:30.491Z,11.5
2018-08-18T12:47:30.498Z,11.54
2018-08-18T12:48:30.669Z,11.62
2018-08-18T12:49:30.799Z,11.64
2018-08-18T12:50:30.486Z,11.69
2018-08-18T12:51:30.520Z,11.63
2018-08-18T12:52:30.527Z,11.58
2018-08-18T12:53:30.515Z,11.56
2018-08-18T12:54:30.719Z,11.54
2018-08-18T12:55:30.668Z,11.49